createdAt,value
2019-01-13T00:00:00.465Z,0.00
2019-01-13T00:01:00.625Z,0.00
2019-01-13T00:02:00.771Z,0.00
2019-01-13T00:03:00.914Z,0.00
2019-01-13T00:04:01.057Z,0.00
2019-01-13T00:05:01.205Z,0.00
2019-01-13T00:06:01.350Z,0.00
2019-01-13T00:07:01.492Z,0.00
2019-01-13T00:08:01.642Z,0.00
2019-01-13T00:09:01.784Z,0.00
2019-01-13T00:10:01.930Z,0.00
2019-01-13T00:11:02.075Z,0.00
2019-01-13T00:12:02.221Z,0.00
2019-01-13T00:13:02.364Z,0.00
2019-01-13T00:14:02.510Z,0.00
2019-01-13T00:15:02.655Z,0.00
2019-01-13T00:16:02.801Z,0.00
2019-01-13T00:17:02.945Z,0.00
2019-01-13T00:18:03.089Z,0.00
2019-01-13T00:19:03.234Z,0.00
2019-01-13T00:20:03.379Z,0.00
2019-01-13T00:21:03.523Z,0.00
2019-01-13T00:22:03.666Z,0.00
2019-01-13T00:23:03.814Z,0.00
2019-01-13T00:24:03.959Z,0.00
2019-01-13T00:25:04.108Z,0.00
2019-01-13T00:26:04.250Z,0.00
2019-01-13T00:27:04.397Z,0.00
2019-01-13T00:28:04.538Z,0.00
2019-01-13T00:29:04.687Z,0.00
2019-01-13T00:30:04.838Z,0.00
2019-01-13T00:31:04.978Z,0.00
2019-01-13T00:32:05.123Z,0.00
2019-01-13T00:33:05.271Z,0.00
2019-01-13T00:34:05.414Z,0.00
2019-01-13T00:35:05.563Z,0.00
2019-01-13T00:36:05.705Z,0.00
2019-01-13T00:37:05.851Z,0.00
2019-01-13T00:38:05.995Z,0.00
2019-01-13T00:39:06.141Z,0.00
2019-01-13T00:40:06.289Z,0.00
2019-01-13T00:41:06.433Z,0.00
2019-01-13T00:42:06.579Z,0.00
2019-01-13T00:43:06.725Z,0.00
2019-01-13T00:44:06.876Z,0.00
2019-01-13T00:45:07.017Z,0.00
2019-01-13T00:46:07.162Z,0.00
2019-01-13T00:47:07.310Z,0.00
2019-01-13T00:48:07.451Z,0.00
2019-01-13T00:49:07.600Z,0.00
2019-01-13T00:50:07.752Z,0.00
2019-01-13T00:51:07.889Z,0.00
2019-01-13T00:52:08.036Z,0.00
2019-01-13T00:53:08.182Z,0.00
2019-01-13T00:54:08.328Z,0.00
2019-01-13T00:55:08.471Z,0.00
2019-01-13T00:56:08.616Z,0.00
2019-01-13T00:57:08.765Z,0.00
2019-01-13T00:58:08.910Z,0.00
2019-01-13T00:59:09.055Z,0.00
2019-01-13T01:00:09.200Z,0.00
2019-01-13T01:01:09.346Z,0.00
2019-01-13T01:02:09.496Z,0.00
2019-01-13T01:03:09.639Z,0.00
2019-01-13T01:04:09.785Z,0.00
2019-01-13T01:05:09.931Z,0.00
2019-01-13T01:06:10.075Z,0.00
2019-01-13T01:07:10.222Z,0.00
2019-01-13T01:08:10.368Z,0.00
2019-01-13T01:09:10.511Z,0.00
2019-01-13T01:10:10.655Z,0.00
2019-01-13T01:11:10.804Z,0.00
2019-01-13T01:12:10.944Z,0.00
2019-01-13T01:13:11.091Z,0.00
2019-01-13T01:14:11.235Z,0.00
2019-01-13T01:15:11.381Z,0.00
2019-01-13T01:16:11.527Z,0.00
2019-01-13T01:17:11.670Z,0.00
2019-01-13T01:18:11.818Z,0.00
2019-01-13T01:19:11.962Z,0.00
2019-01-13T01:20:12.107Z,0.00
2019-01-13T01:21:12.252Z,0.00
2019-01-13T01:22:12.398Z,0.00
2019-01-13T01:23:12.545Z,0.00
2019-01-13T01:24:12.689Z,0.00
2019-01-13T01:25:12.832Z,0.00
2019-01-13T01:26:12.980Z,0.00
2019-01-13T01:27:13.120Z,0.00
2019-01-13T01:28:13.270Z,0.00
2019-01-13T01:29:13.409Z,0.00
2019-01-13T01:30:13.556Z,0.00
2019-01-13T01:31:13.703Z,0.00
2019-01-13T01:32:13.845Z,0.00
2019-01-13T01:33:13.990Z,0.00
2019-01-13T01:34:14.133Z,0.00
2019-01-13T01:35:14.280Z,0.00
2019-01-13T01:36:14.423Z,0.00
2019-01-13T01:37:14.569Z,0.00
2019-01-13T01:38:14.713Z,0.00
2019-01-13T01:39:14.858Z,0.00
2019-01-13T01:40:15.002Z,0.00
2019-01-13T01:41:15.150Z,0.00
2019-01-13T01:42:15.293Z,0.00
2019-01-13T01:43:15.441Z,0.00
2019-01-13T01:44:15.581Z,0.00
2019-01-13T01:45:15.725Z,0.00
2019-01-13T01:46:15.872Z,0.00
2019-01-13T01:47:16.025Z,0.00
2019-01-13T01:48:16.163Z,0.00
2019-01-13T01:49:16.310Z,0.00
2019-01-13T01:50:16.459Z,0.00
2019-01-13T01:51:16.601Z,0.00
2019-01-13T01:52:16.746Z,0.00
2019-01-13T01:53:16.892Z,0.00
2019-01-13T01:54:17.038Z,0.00
2019-01-13T01:55:17.182Z,0.00
2019-01-13T01:56:17.328Z,0.00
2019-01-13T01:57:17.473Z,0.00
2019-01-13T01:58:17.618Z,0.00
2019-01-13T01:59:17.760Z,0.00
2019-01-13T02:00:17.906Z,0.00
2019-01-13T02:01:18.054Z,0.00
2019-01-13T02:02:18.194Z,0.00
2019-01-13T02:03:18.339Z,0.00
2019-01-13T02:04:18.482Z,0.00
2019-01-13T02:05:18.626Z,0.00
2019-01-13T02:06:18.805Z,0.00
2019-01-13T02:07:18.954Z,0.00
2019-01-13T02:08:19.062Z,0.00
2019-01-13T02:09:19.204Z,0.00
2019-01-13T02:10:19.351Z,0.00
2019-01-13T02:11:19.494Z,0.00
2019-01-13T02:12:19.640Z,0.00
2019-01-13T02:13:19.786Z,0.00
2019-01-13T02:14:19.934Z,0.00
2019-01-13T02:15:20.080Z,0.00
2019-01-13T02:16:20.223Z,0.00
2019-01-13T02:17:20.368Z,0.00
2019-01-13T02:18:20.513Z,0.00
2019-01-13T02:19:20.660Z,0.00
2019-01-13T02:20:20.805Z,0.00
2019-01-13T02:21:20.949Z,0.00
2019-01-13T02:22:21.094Z,0.00
2019-01-13T02:23:21.239Z,0.00
2019-01-13T02:24:21.383Z,0.00
2019-01-13T02:25:21.531Z,0.00
2019-01-13T02:26:21.674Z,0.00
2019-01-13T02:27:21.819Z,0.00
2019-01-13T02:28:21.966Z,0.00
2019-01-13T02:29:22.107Z,0.00
2019-01-13T02:30:22.252Z,0.00
2019-01-13T02:31:22.397Z,0.00
2019-01-13T02:32:22.542Z,0.00
2019-01-13T02:33:22.687Z,0.00
2019-01-13T02:34:22.831Z,0.00
2019-01-13T02:35:23.038Z,0.00
2019-01-13T02:36:23.123Z,0.00
2019-01-13T02:37:23.268Z,0.00
2019-01-13T02:38:23.411Z,0.00
2019-01-13T02:39:23.558Z,0.00
2019-01-13T02:40:23.726Z,0.00
2019-01-13T02:41:23.847Z,0.00
2019-01-13T02:42:23.991Z,0.00
2019-01-13T02:43:24.133Z,0.00
2019-01-13T02:44:24.278Z,0.00
2019-01-13T02:45:24.426Z,0.00
2019-01-13T02:46:24.576Z,0.00
2019-01-13T02:47:24.707Z,0.00
2019-01-13T02:48:24.889Z,0.00
2019-01-13T02:49:25.032Z,0.00
2019-01-13T02:50:25.175Z,0.00
2019-01-13T02:51:25.320Z,0.00
2019-01-13T02:52:25.462Z,0.00
2019-01-13T02:53:25.608Z,0.00
2019-01-13T02:54:25.750Z,0.00
2019-01-13T02:55:25.901Z,0.00
2019-01-13T02:56:26.040Z,0.00
2019-01-13T02:57:26.185Z,0.00
2019-01-13T02:58:26.329Z,0.00
2019-01-13T02:59:26.473Z,0.00
2019-01-13T03:00:26.618Z,0.00
2019-01-13T03:01:26.763Z,0.00
2019-01-13T03:02:26.905Z,0.00
2019-01-13T03:03:27.053Z,0.00
2019-01-13T03:04:27.197Z,0.00
2019-01-13T03:05:27.342Z,0.00
2019-01-13T03:06:27.521Z,0.00
2019-01-13T03:07:27.640Z,0.00
2019-01-13T03:08:27.777Z,0.00
2019-01-13T03:09:27.930Z,0.00
2019-01-13T03:10:28.069Z,0.00
2019-01-13T03:11:28.217Z,0.00
2019-01-13T03:12:28.357Z,0.00
2019-01-13T03:13:28.504Z,0.00
2019-01-13T03:14:28.647Z,0.00
2019-01-13T03:15:28.794Z,0.00
2019-01-13T03:16:28.939Z,0.00
2019-01-13T03:17:29.084Z,0.00
2019-01-13T03:18:29.233Z,0.00
2019-01-13T03:19:29.380Z,0.00
2019-01-13T03:20:29.524Z,0.00
2019-01-13T03:21:29.670Z,0.00
2019-01-13T03:22:29.815Z,0.00
2019-01-13T03:23:29.957Z,0.00
2019-01-13T03:24:30.102Z,0.00
2019-01-13T03:25:30.248Z,0.00
2019-01-13T03:26:30.391Z,0.00
2019-01-13T03:27:30.537Z,0.00
2019-01-13T03:28:30.680Z,0.00
2019-01-13T03:29:30.824Z,0.00
2019-01-13T03:30:30.968Z,0.00
2019-01-13T03:31:31.114Z,0.00
2019-01-13T03:32:31.267Z,0.00
2019-01-13T03:33:31.404Z,0.00
2019-01-13T03:34:31.548Z,0.00
2019-01-13T03:35:31.694Z,0.00
2019-01-13T03:36:31.839Z,0.00
2019-01-13T03:37:31.990Z,0.00
2019-01-13T03:38:32.130Z,0.00
2019-01-13T03:39:32.274Z,0.00
2019-01-13T03:40:32.416Z,0.00
2019-01-13T03:41:32.561Z,0.00
2019-01-13T03:42:32.709Z,0.00
2019-01-13T03:43:32.863Z,0.00
2019-01-13T03:44:32.998Z,0.00
2019-01-13T03:45:33.143Z,0.00
2019-01-13T03:46:33.289Z,0.00
2019-01-13T03:47:33.435Z,0.00
2019-01-13T03:48:33.580Z,0.00
2019-01-13T03:49:33.726Z,0.00
2019-01-13T03:50:33.881Z,0.00
2019-01-13T03:51:34.025Z,0.00
2019-01-13T03:52:34.160Z,0.00
2019-01-13T03:53:34.306Z,0.00
2019-01-13T03:54:34.450Z,0.00
2019-01-13T03:55:34.589Z,0.00
2019-01-13T03:56:34.739Z,0.00
2019-01-13T03:57:34.877Z,0.00
2019-01-13T03:58:35.021Z,0.00
2019-01-13T03:59:35.165Z,0.00
2019-01-13T04:00:35.310Z,0.00
2019-01-13T04:01:35.458Z,0.00
2019-01-13T04:02:35.604Z,0.00
2019-01-13T04:03:35.749Z,0.00
2019-01-13T04:04:35.896Z,0.00
2019-01-13T04:05:36.044Z,0.00
2019-01-13T04:06:36.184Z,0.00
2019-01-13T04:07:36.328Z,0.00
2019-01-13T04:08:36.472Z,0.00
2019-01-13T04:09:36.618Z,0.00
2019-01-13T04:10:36.760Z,0.00
2019-01-13T04:11:36.906Z,0.00
2019-01-13T04:12:37.050Z,0.00
2019-01-13T04:13:37.196Z,0.00
2019-01-13T04:14:37.341Z,0.00
2019-01-13T04:15:37.488Z,0.00
2019-01-13T04:16:37.636Z,0.00
2019-01-13T04:17:37.780Z,0.00
2019-01-13T04:18:37.927Z,0.00
2019-01-13T04:19:38.068Z,0.00
2019-01-13T04:20:38.215Z,0.00
2019-01-13T04:21:38.357Z,0.00
2019-01-13T04:22:38.514Z,0.00
2019-01-13T04:23:38.646Z,0.00
2019-01-13T04:24:38.794Z,0.00
2019-01-13T04:25:38.943Z,0.00
2019-01-13T04:26:39.086Z,0.00
2019-01-13T04:27:39.229Z,0.00
2019-01-13T04:28:39.373Z,0.00
2019-01-13T04:29:39.519Z,0.00
2019-01-13T04:30:39.669Z,0.00
2019-01-13T04:31:39.811Z,0.00
2019-01-13T04:32:39.957Z,0.00
2019-01-13T04:33:40.100Z,0.00
2019-01-13T04:34:40.245Z,0.00
2019-01-13T04:35:40.389Z,0.00
2019-01-13T04:36:40.532Z,0.00
2019-01-13T04:37:40.676Z,0.00
2019-01-13T04:38:40.823Z,0.00
2019-01-13T04:39:40.968Z,0.00
2019-01-13T04:40:41.108Z,0.00
2019-01-13T04:41:41.259Z,0.00
2019-01-13T04:42:41.407Z,0.00
2019-01-13T04:43:41.544Z,0.00
2019-01-13T04:44:41.689Z,0.00
2019-01-13T04:45:41.831Z,0.00
2019-01-13T04:46:41.976Z,0.00
2019-01-13T04:47:42.122Z,0.00
2019-01-13T04:48:42.265Z,0.00
2019-01-13T04:49:42.412Z,0.00
2019-01-13T04:50:42.585Z,0.00
2019-01-13T04:51:42.725Z,0.00
2019-01-13T04:52:42.871Z,0.00
2019-01-13T04:53:43.017Z,0.00
2019-01-13T04:54:43.164Z,0.00
2019-01-13T04:55:43.303Z,0.00
2019-01-13T04:56:43.447Z,0.00
2019-01-13T04:57:43.593Z,0.00
2019-01-13T04:58:43.738Z,0.00
2019-01-13T04:59:43.885Z,0.00
2019-01-13T05:00:44.030Z,0.00
2019-01-13T05:01:44.174Z,0.00
2019-01-13T05:02:44.318Z,0.00
2019-01-13T05:03:44.464Z,0.00
2019-01-13T05:04:44.610Z,0.00
2019-01-13T05:05:44.756Z,0.00
2019-01-13T05:06:44.900Z,0.00
2019-01-13T05:07:45.044Z,0.00
2019-01-13T05:08:45.189Z,0.00
2019-01-13T05:09:45.334Z,0.00
2019-01-13T05:10:45.474Z,0.00
2019-01-13T05:11:45.620Z,0.00
2019-01-13T05:12:45.764Z,0.00
2019-01-13T05:13:45.911Z,0.00
2019-01-13T05:14:46.058Z,0.00
2019-01-13T05:15:46.201Z,0.00
2019-01-13T05:16:46.344Z,0.00
2019-01-13T05:17:46.490Z,0.00
2019-01-13T05:18:46.663Z,0.00
2019-01-13T05:19:46.780Z,0.00
2019-01-13T05:20:46.927Z,0.00
2019-01-13T05:21:47.068Z,0.00
2019-01-13T05:22:47.213Z,0.00
2019-01-13T05:23:47.361Z,0.00
2019-01-13T05:24:47.506Z,0.00
2019-01-13T05:25:47.650Z,0.00
2019-01-13T05:26:47.795Z,0.00
2019-01-13T05:27:47.942Z,0.00
2019-01-13T05:28:48.085Z,0.00
2019-01-13T05:29:48.230Z,0.00
2019-01-13T05:30:48.375Z,0.00
2019-01-13T05:31:48.520Z,0.00
2019-01-13T05:32:48.664Z,0.00
2019-01-13T05:33:48.809Z,0.00
2019-01-13T05:34:48.955Z,0.00
2019-01-13T05:35:49.100Z,0.00
2019-01-13T05:36:49.248Z,0.00
2019-01-13T05:37:49.393Z,0.00
2019-01-13T05:38:49.535Z,0.00
2019-01-13T05:39:49.679Z,0.00
2019-01-13T05:40:49.823Z,0.00
2019-01-13T05:41:49.968Z,0.00
2019-01-13T05:42:50.115Z,0.00
2019-01-13T05:43:50.258Z,0.00
2019-01-13T05:44:50.425Z,0.00
2019-01-13T05:45:50.541Z,0.00
2019-01-13T05:46:50.684Z,0.00
2019-01-13T05:47:50.830Z,0.00
2019-01-13T05:48:50.976Z,0.00
2019-01-13T05:49:51.121Z,0.00
2019-01-13T05:50:51.265Z,0.00
2019-01-13T05:51:51.411Z,0.00
2019-01-13T05:52:51.556Z,0.00
2019-01-13T05:53:51.704Z,0.00
2019-01-13T05:54:51.846Z,0.00
2019-01-13T05:55:51.993Z,0.00
2019-01-13T05:56:52.138Z,0.00
2019-01-13T05:57:52.284Z,0.00
2019-01-13T05:58:52.444Z,0.00
2019-01-13T05:59:52.575Z,0.00
2019-01-13T06:00:52.724Z,0.00
2019-01-13T06:01:52.868Z,0.00
2019-01-13T06:02:53.013Z,0.00
2019-01-13T06:03:53.157Z,0.00
2019-01-13T06:04:53.303Z,0.00
2019-01-13T06:05:53.449Z,0.00
2019-01-13T06:06:53.595Z,0.00
2019-01-13T06:07:53.770Z,0.00
2019-01-13T06:08:53.884Z,0.00
2019-01-13T06:09:54.026Z,0.00
2019-01-13T06:10:54.170Z,0.00
2019-01-13T06:11:54.317Z,0.00
2019-01-13T06:12:54.465Z,0.00
2019-01-13T06:13:54.610Z,0.00
2019-01-13T06:14:54.753Z,0.00
2019-01-13T06:15:54.902Z,0.00
2019-01-13T06:16:55.047Z,0.00
2019-01-13T06:17:55.191Z,0.00
2019-01-13T06:18:55.335Z,0.00
2019-01-13T06:19:55.482Z,0.00
2019-01-13T06:20:55.628Z,0.00
2019-01-13T06:21:55.775Z,0.00
2019-01-13T06:22:55.918Z,0.00
2019-01-13T06:23:56.062Z,0.00
2019-01-13T06:24:56.207Z,0.00
2019-01-13T06:25:56.357Z,0.00
2019-01-13T06:26:56.497Z,0.00
2019-01-13T06:27:56.647Z,0.00
2019-01-13T06:28:56.789Z,0.00
2019-01-13T06:29:56.934Z,0.00
2019-01-13T06:30:57.078Z,0.00
2019-01-13T06:31:57.224Z,0.00
2019-01-13T06:32:57.369Z,0.00
2019-01-13T06:33:57.518Z,0.00
2019-01-13T06:34:57.660Z,0.00
2019-01-13T06:35:57.805Z,0.00
2019-01-13T06:36:57.958Z,0.00
2019-01-13T06:37:58.098Z,0.00
2019-01-13T06:38:58.243Z,0.00
2019-01-13T06:39:58.389Z,0.00
2019-01-13T06:40:58.536Z,0.00
2019-01-13T06:41:58.680Z,0.00
2019-01-13T06:42:58.825Z,0.00
2019-01-13T06:43:58.972Z,0.00
2019-01-13T06:44:59.117Z,0.00
2019-01-13T06:45:59.266Z,0.00
2019-01-13T06:46:59.411Z,0.00
2019-01-13T06:47:59.554Z,0.00
2019-01-13T06:48:59.699Z,4.00
2019-01-13T06:49:59.846Z,4.00
2019-01-13T06:50:59.992Z,4.00
2019-01-13T06:52:00.136Z,4.00
2019-01-13T06:53:00.284Z,4.00
2019-01-13T06:54:00.428Z,4.00
2019-01-13T06:55:00.623Z,4.00
2019-01-13T06:56:00.719Z,4.00
2019-01-13T06:57:00.864Z,8.00
2019-01-13T06:58:01.010Z,4.00
2019-01-13T06:59:01.155Z,8.00
2019-01-13T07:00:01.302Z,8.00
2019-01-13T07:01:01.448Z,8.00
2019-01-13T07:02:03.479Z,8.00
2019-01-13T07:03:01.738Z,12.00
2019-01-13T07:04:01.885Z,12.00
2019-01-13T07:05:02.033Z,16.00
2019-01-13T07:06:02.184Z,16.00
2019-01-13T07:07:02.322Z,20.00
2019-01-13T07:08:02.470Z,20.00
2019-01-13T07:09:02.619Z,20.00
2019-01-13T07:10:02.760Z,20.00
2019-01-13T07:11:02.906Z,20.00
2019-01-13T07:12:03.054Z,24.00
2019-01-13T07:13:03.199Z,28.00
2019-01-13T07:14:03.345Z,28.00
2019-01-13T07:15:03.491Z,32.00
2019-01-13T07:16:03.635Z,32.00
2019-01-13T07:17:03.781Z,32.00
2019-01-13T07:18:03.927Z,40.00
2019-01-13T07:19:04.075Z,48.00
2019-01-13T07:20:04.217Z,52.00
2019-01-13T07:21:04.363Z,52.00
2019-01-13T07:22:04.510Z,68.00
2019-01-13T07:23:04.658Z,80.00
2019-01-13T07:24:04.803Z,72.00
2019-01-13T07:25:04.947Z,72.00
2019-01-13T07:26:05.095Z,76.00
2019-01-13T07:27:05.239Z,80.00
2019-01-13T07:28:05.384Z,92.00
2019-01-13T07:29:05.537Z,84.00
2019-01-13T07:30:05.677Z,88.00
2019-01-13T07:31:05.825Z,96.00
2019-01-13T07:32:10.717Z,108.00
2019-01-13T07:33:06.114Z,104.00
2019-01-13T07:34:06.260Z,100.00
2019-01-13T07:35:06.410Z,116.00
2019-01-13T07:36:06.552Z,132.00
2019-01-13T07:37:06.698Z,120.00
2019-01-13T07:38:06.842Z,112.00
2019-01-13T07:39:06.987Z,128.00
2019-01-13T07:40:07.135Z,160.00
2019-01-13T07:41:07.282Z,216.00
2019-01-13T07:42:07.426Z,220.00
2019-01-13T07:43:07.573Z,224.00
2019-01-13T07:44:07.719Z,220.00
2019-01-13T07:45:07.864Z,224.00
2019-01-13T07:46:08.011Z,200.00
2019-01-13T07:47:08.156Z,180.00
2019-01-13T07:48:08.304Z,204.00
2019-01-13T07:49:08.449Z,248.00
2019-01-13T07:50:08.599Z,240.00
2019-01-13T07:51:08.744Z,228.00
2019-01-13T07:52:08.888Z,228.00
2019-01-13T07:53:09.058Z,272.00
2019-01-13T07:54:09.182Z,276.00
2019-01-13T07:55:09.332Z,240.00
2019-01-13T07:56:09.476Z,216.00
2019-01-13T07:57:09.633Z,252.00
2019-01-13T07:58:09.770Z,256.00
2019-01-13T07:59:09.916Z,244.00
2019-01-13T08:00:10.061Z,236.00
2019-01-13T08:01:10.208Z,240.00
2019-01-13T08:02:10.353Z,236.00
2019-01-13T08:03:10.497Z,212.00
2019-01-13T08:04:10.642Z,228.00
2019-01-13T08:05:10.792Z,184.00
2019-01-13T08:06:10.940Z,180.00
2019-01-13T08:07:11.086Z,228.00
2019-01-13T08:08:11.233Z,288.00
2019-01-13T08:09:11.378Z,300.00
2019-01-13T08:10:11.526Z,304.00
2019-01-13T08:11:11.676Z,296.00
2019-01-13T08:12:11.820Z,256.00
2019-01-13T08:13:11.966Z,296.00
2019-01-13T08:14:12.111Z,352.00
2019-01-13T08:15:12.257Z,336.00
2019-01-13T08:16:12.404Z,268.00
2019-01-13T08:17:12.548Z,256.00
2019-01-13T08:18:12.692Z,260.00
2019-01-13T08:19:12.839Z,348.00
2019-01-13T08:20:12.987Z,280.00
2019-01-13T08:21:13.132Z,292.00
2019-01-13T08:22:13.278Z,336.00
2019-01-13T08:23:13.425Z,428.00
2019-01-13T08:24:13.565Z,492.00
2019-01-13T08:25:13.712Z,512.00
2019-01-13T08:26:13.858Z,492.00
2019-01-13T08:27:14.006Z,472.00
2019-01-13T08:28:14.147Z,468.00
2019-01-13T08:29:14.294Z,496.00
2019-01-13T08:30:14.441Z,608.00
2019-01-13T08:31:14.589Z,744.00
2019-01-13T08:32:14.740Z,720.00
2019-01-13T08:33:14.879Z,720.00
2019-01-13T08:34:15.029Z,728.00
2019-01-13T08:35:15.161Z,700.00
2019-01-13T08:36:15.310Z,640.00
2019-01-13T08:37:15.456Z,684.00
2019-01-13T08:38:15.601Z,788.00
2019-01-13T08:39:15.747Z,888.00
2019-01-13T08:40:15.891Z,944.00
2019-01-13T08:41:16.040Z,936.00
2019-01-13T08:42:16.187Z,1028.00
2019-01-13T08:43:16.341Z,1064.00
2019-01-13T08:44:16.479Z,1028.00
2019-01-13T08:45:16.628Z,1048.00
2019-01-13T08:46:16.769Z,1092.00
2019-01-13T08:47:16.913Z,1092.00
2019-01-13T08:48:17.061Z,1120.00
2019-01-13T08:49:17.799Z,1060.00
2019-01-13T08:50:17.358Z,988.00
2019-01-13T08:51:17.500Z,924.00
2019-01-13T08:52:17.649Z,892.00
2019-01-13T08:53:17.793Z,860.00
2019-01-13T08:54:17.941Z,820.00
2019-01-13T08:55:18.087Z,724.00
2019-01-13T08:56:18.233Z,752.00
2019-01-13T08:57:18.381Z,760.00
2019-01-13T08:58:18.516Z,700.00
2019-01-13T08:59:18.665Z,696.00
2019-01-13T09:00:18.810Z,780.00
2019-01-13T09:01:18.958Z,836.00
2019-01-13T09:02:19.103Z,760.00
2019-01-13T09:03:19.249Z,764.00
2019-01-13T09:04:19.396Z,836.00
2019-01-13T09:05:19.544Z,888.00
2019-01-13T09:06:19.691Z,876.00
2019-01-13T09:07:19.841Z,852.00
2019-01-13T09:08:19.987Z,800.00
2019-01-13T09:09:20.133Z,796.00
2019-01-13T09:10:20.280Z,828.00
2019-01-13T09:11:20.427Z,900.00
2019-01-13T09:12:20.572Z,1024.00
2019-01-13T09:13:20.720Z,1096.00
2019-01-13T09:14:20.868Z,1180.00
2019-01-13T09:15:21.015Z,1232.00
2019-01-13T09:16:21.161Z,1196.00
2019-01-13T09:17:21.309Z,1100.00
2019-01-13T09:18:21.457Z,1088.00
2019-01-13T09:19:21.603Z,1088.00
2019-01-13T09:20:21.752Z,1096.00
2019-01-13T09:21:21.898Z,952.00
2019-01-13T09:22:22.047Z,912.00
2019-01-13T09:23:22.189Z,872.00
2019-01-13T09:24:22.337Z,752.00
2019-01-13T09:25:22.483Z,720.00
2019-01-13T09:26:22.631Z,668.00
2019-01-13T09:27:22.777Z,636.00
2019-01-13T09:28:22.923Z,568.00
2019-01-13T09:29:23.077Z,632.00
2019-01-13T09:30:23.216Z,664.00
2019-01-13T09:31:23.365Z,684.00
2019-01-13T09:32:23.512Z,696.00
2019-01-13T09:33:23.658Z,684.00
2019-01-13T09:34:23.804Z,784.00
2019-01-13T09:35:23.952Z,808.00
2019-01-13T09:36:24.100Z,796.00
2019-01-13T09:37:24.247Z,768.00
2019-01-13T09:38:24.401Z,848.00
2019-01-13T09:39:24.544Z,964.00
2019-01-13T09:40:24.691Z,908.00
2019-01-13T09:41:24.835Z,928.00
2019-01-13T09:42:24.991Z,1084.00
2019-01-13T09:43:25.120Z,1136.00
2019-01-13T09:44:25.268Z,1092.00
2019-01-13T09:45:25.412Z,1148.00
2019-01-13T09:46:25.561Z,1180.00
2019-01-13T09:47:25.706Z,1268.00
2019-01-13T09:48:25.855Z,1348.00
2019-01-13T09:49:26.001Z,1424.00
2019-01-13T09:50:26.149Z,1484.00
2019-01-13T09:51:26.295Z,1404.00
2019-01-13T09:52:26.441Z,1424.00
2019-01-13T09:53:26.591Z,1372.00
2019-01-13T09:54:26.737Z,1220.00
2019-01-13T09:55:26.882Z,1120.00
2019-01-13T09:56:27.031Z,1160.00
2019-01-13T09:57:27.189Z,1296.00
2019-01-13T09:58:27.377Z,1400.00
2019-01-13T09:59:27.474Z,1356.00
2019-01-13T10:00:27.620Z,1400.00
2019-01-13T10:01:27.772Z,1412.00
2019-01-13T10:02:27.919Z,1288.00
2019-01-13T10:03:28.067Z,1244.00
2019-01-13T10:04:28.218Z,1200.00
2019-01-13T10:05:28.364Z,1168.00
2019-01-13T10:06:28.513Z,1180.00
2019-01-13T10:07:28.662Z,1160.00
2019-01-13T10:08:28.808Z,1220.00
2019-01-13T10:09:28.952Z,1184.00
2019-01-13T10:10:29.099Z,1204.00
2019-01-13T10:11:29.250Z,1356.00
2019-01-13T10:12:29.393Z,1400.00
2019-01-13T10:13:29.541Z,1296.00
2019-01-13T10:14:29.690Z,1260.00
2019-01-13T10:15:29.835Z,1340.00
2019-01-13T10:16:29.980Z,1472.00
2019-01-13T10:17:30.130Z,1432.00
2019-01-13T10:18:30.278Z,1468.00
2019-01-13T10:19:30.423Z,1396.00
2019-01-13T10:20:30.572Z,1232.00
2019-01-13T10:21:30.738Z,1184.00
2019-01-13T10:22:30.901Z,1172.00
2019-01-13T10:23:31.025Z,1100.00
2019-01-13T10:24:31.172Z,940.00
2019-01-13T10:25:31.318Z,776.00
2019-01-13T10:26:31.469Z,664.00
2019-01-13T10:27:31.619Z,668.00
2019-01-13T10:28:31.770Z,732.00
2019-01-13T10:29:31.916Z,804.00
2019-01-13T10:30:32.072Z,896.00
2019-01-13T10:31:32.215Z,1200.00
2019-01-13T10:32:32.367Z,1556.00
2019-01-13T10:33:32.518Z,1284.00
2019-01-13T10:34:32.696Z,1288.00
2019-01-13T10:35:32.850Z,1452.00
2019-01-13T10:36:32.993Z,1480.00
2019-01-13T10:37:33.141Z,1444.00
2019-01-13T10:38:33.284Z,1228.00
2019-01-13T10:39:33.436Z,1000.00
2019-01-13T10:40:33.582Z,840.00
2019-01-13T10:41:33.731Z,796.00
2019-01-13T10:42:33.879Z,784.00
2019-01-13T10:43:34.021Z,732.00
2019-01-13T10:44:34.171Z,712.00
2019-01-13T10:45:34.322Z,776.00
2019-01-13T10:46:34.468Z,1028.00
2019-01-13T10:47:34.615Z,1196.00
2019-01-13T10:48:34.764Z,1512.00
2019-01-13T10:49:34.912Z,2104.00
2019-01-13T10:50:35.057Z,2124.00
2019-01-13T10:51:35.205Z,2136.00
2019-01-13T10:52:35.353Z,1940.00
2019-01-13T10:53:35.501Z,1772.00
2019-01-13T10:54:35.647Z,1436.00
2019-01-13T10:55:35.796Z,1624.00
2019-01-13T10:56:35.945Z,1636.00
2019-01-13T10:57:36.090Z,1588.00
2019-01-13T10:58:36.238Z,1524.00
2019-01-13T10:59:36.398Z,1648.00
2019-01-13T11:00:36.541Z,1832.00
2019-01-13T11:01:36.688Z,1892.00
2019-01-13T11:02:36.835Z,1896.00
2019-01-13T11:03:36.983Z,2180.00
2019-01-13T11:04:37.131Z,1984.00
2019-01-13T11:05:37.277Z,1836.00
2019-01-13T11:06:37.423Z,2012.00
2019-01-13T11:07:37.571Z,2204.00
2019-01-13T11:08:37.786Z,2212.00
2019-01-13T11:09:37.866Z,2012.00
2019-01-13T11:10:38.013Z,1896.00
2019-01-13T11:11:38.164Z,1844.00
2019-01-13T11:12:38.320Z,1856.00
2019-01-13T11:13:38.880Z,1616.00
2019-01-13T11:14:38.619Z,1476.00
2019-01-13T11:15:38.770Z,1852.00
2019-01-13T11:16:38.925Z,1960.00
2019-01-13T11:17:39.088Z,1912.00
2019-01-13T11:18:39.234Z,2024.00
2019-01-13T11:19:39.379Z,1656.00
2019-01-13T11:20:39.527Z,1748.00
2019-01-13T11:21:39.817Z,1640.00
2019-01-13T11:22:39.877Z,1852.00
2019-01-13T11:23:40.031Z,1792.00
2019-01-13T11:24:40.178Z,1684.00
2019-01-13T11:25:40.330Z,1548.00
2019-01-13T11:26:40.472Z,1424.00
2019-01-13T11:27:40.623Z,1672.00
2019-01-13T11:28:40.769Z,1640.00
2019-01-13T11:29:40.917Z,1964.00
2019-01-13T11:30:41.067Z,2428.00
2019-01-13T11:31:41.211Z,2444.00
2019-01-13T11:32:41.360Z,2176.00
2019-01-13T11:33:41.509Z,2304.00
2019-01-13T11:34:41.656Z,2388.00
2019-01-13T11:35:41.804Z,2280.00
2019-01-13T11:36:41.953Z,2172.00
2019-01-13T11:37:42.097Z,2032.00
2019-01-13T11:38:42.247Z,2136.00
2019-01-13T11:39:42.395Z,1800.00
2019-01-13T11:40:42.542Z,1684.00
2019-01-13T11:41:42.689Z,1692.00
2019-01-13T11:42:42.846Z,2124.00
2019-01-13T11:43:42.990Z,2272.00
2019-01-13T11:44:43.142Z,1956.00
2019-01-13T11:45:43.296Z,2184.00
2019-01-13T11:46:43.444Z,2052.00
2019-01-13T11:47:43.590Z,2140.00
2019-01-13T11:48:43.745Z,2352.00
2019-01-13T11:49:43.891Z,2356.00
2019-01-13T11:50:44.040Z,2368.00
2019-01-13T11:51:44.186Z,2392.00
2019-01-13T11:52:44.335Z,2708.00
2019-01-13T11:53:44.485Z,2344.00
2019-01-13T11:54:44.630Z,2312.00
2019-01-13T11:55:44.780Z,2356.00
2019-01-13T11:56:44.925Z,2480.00
2019-01-13T11:57:45.072Z,2812.00
2019-01-13T11:58:45.219Z,2452.00
2019-01-13T11:59:45.367Z,2204.00
2019-01-13T12:00:45.529Z,2680.00
2019-01-13T12:01:45.675Z,3116.00
2019-01-13T12:02:45.841Z,2568.00
2019-01-13T12:03:45.972Z,2992.00
2019-01-13T12:04:46.120Z,2908.00
2019-01-13T12:05:46.267Z,2588.00
2019-01-13T12:06:46.420Z,2144.00
2019-01-13T12:07:46.573Z,2284.00
2019-01-13T12:08:46.718Z,3032.00
2019-01-13T12:09:46.898Z,3072.00
2019-01-13T12:10:47.011Z,3720.00
2019-01-13T12:11:47.157Z,3544.00
2019-01-13T12:12:47.322Z,3020.00
2019-01-13T12:13:47.969Z,3764.00
2019-01-13T12:14:47.606Z,3500.00
2019-01-13T12:15:47.756Z,3932.00
2019-01-13T12:16:47.902Z,3968.00
2019-01-13T12:17:48.055Z,3964.00
2019-01-13T12:18:48.197Z,3800.00
2019-01-13T12:19:48.346Z,3880.00
2019-01-13T12:20:48.495Z,3620.00
2019-01-13T12:21:48.648Z,3324.00
2019-01-13T12:22:48.852Z,2572.00
2019-01-13T12:23:48.932Z,3164.00
2019-01-13T12:24:49.089Z,4268.00
2019-01-13T12:25:52.783Z,4912.00
2019-01-13T12:26:49.511Z,4008.00
2019-01-13T12:27:49.634Z,3828.00
2019-01-13T12:28:49.739Z,3936.00
2019-01-13T12:29:49.870Z,4120.00
2019-01-13T12:30:49.984Z,4748.00
2019-01-13T12:31:50.071Z,4604.00
2019-01-13T12:32:50.096Z,4708.00
2019-01-13T12:33:50.324Z,4104.00
2019-01-13T12:34:50.420Z,3780.00
2019-01-13T12:35:50.536Z,3868.00
2019-01-13T12:36:50.563Z,3848.00
2019-01-13T12:37:50.865Z,3412.00
2019-01-13T12:38:50.863Z,2980.00
2019-01-13T12:39:51.163Z,2804.00
2019-01-13T12:40:51.187Z,3012.00
2019-01-13T12:41:51.430Z,3808.00
2019-01-13T12:42:51.458Z,3856.00
2019-01-13T12:43:51.663Z,3228.00
2019-01-13T12:44:51.693Z,2980.00
2019-01-13T12:45:51.847Z,3596.00
2019-01-13T12:46:52.111Z,3424.00
2019-01-13T12:47:52.159Z,3108.00
2019-01-13T12:48:52.309Z,3208.00
2019-01-13T12:49:52.491Z,3104.00
2019-01-13T12:50:52.653Z,2772.00